ルクソール の空港の天気 - METARとTAF

ルクソール国際空港 ( HELX / LXR ) - エジプト ルクソール
飛行場実況気象(Metar)
観測時間04/27 06:00 EET (04/27 04:00 UTC)
風向・風速南 2m/s
視程10km以上
天気現象
なし
気温19℃
湿度49%
気圧1011hPa
METARHELX 270400Z 17003KT CAVOK 19/08 Q1011 NOSIG
過去の天気等 Google飛行場航空写真 Wunderground天気予報

過去48時間のMETAR

飛行場予報(TAF)
発表時間: 4/27 01:00 EET (4/26 23:00 UTC)
予報対象時間: 27日2時 EET ~ 28日8時 EET
風向・風速西 3m/s
視程10km以上
なし
27日8時 EET ~ 27日16時 EET に一時的に
視程6,000m
全天の4割程度の雲 雲底高度 910m
TAF HELX 262300Z 2700/2806 28006KT CAVOK
TEMPO 2706/2714 6000 SCT030